Time;durP1;ratioP1;P1;durP2;ratioP2;P2;SDS_P1;SDS_P2;PMS_P1;PMS_P2;Temp;Humidity;BMP_temperature;BMP_pressure;BME280_temperature;BME280_humidity;BME280_pressure;Samples;Min_cycle;Max_cycle;Signal;HPM_P1;HPM_P2
2022/05/23 00:00:53;;;;;;;4.2;2.9;;;;;;;16.55;80.3877;931.6825;;;;
2022/05/23 00:03:27;;;;;;;4.7;3.3;;;;;;;16.52;80.26563;931.6744;;;;
2022/05/23 00:05:57;;;;;;;4;3.2;;;;;;;16.57;80.29688;931.605;;;;
2022/05/23 00:08:28;;;;;;;4.9;3;;;;;;;16.54;80.51172;931.572;;;;
2022/05/23 00:10:55;;;;;;;4.5;3.1;;;;;;;16.48;80.73145;931.563;;;;
2022/05/23 00:13:20;;;;;;;4.6;3.1;;;;;;;16.26;81.74414;931.4899;;;;
2022/05/23 00:15:48;;;;;;;4.4;3.6;;;;;;;16.13;82.71582;931.4871;;;;
2022/05/23 00:18:20;;;;;;;7.6;3.4;;;;;;;16.15;82.69629;931.407;;;;
2022/05/23 00:20:49;;;;;;;5.4;3.5;;;;;;;16.16;82.47754;931.4822;;;;
2022/05/23 00:23:14;;;;;;;5.2;3.2;;;;;;;16.29;81.94629;931.433;;;;
2022/05/23 00:25:39;;;;;;;8.1;3.9;;;;;;;16.28;81.86523;931.3616;;;;
2022/05/23 00:28:04;;;;;;;4.1;3.5;;;;;;;16.21;82.18555;931.445;;;;
2022/05/23 00:30:35;;;;;;;5.7;3.8;;;;;;;16.22;82.02539;931.3881;;;;
2022/05/23 00:35:27;;;;;;;4.7;3.3;;;;;;;16.53;81.64453;931.3102;;;;
2022/05/23 00:37:52;;;;;;;4.1;3.3;;;;;;;16.65;81.22852;931.3709;;;;
2022/05/23 00:40:21;;;;;;;6.4;3.6;;;;;;;16.67;80.30371;931.2897;;;;
2022/05/23 00:45:15;;;;;;;5.4;3.7;;;;;;;16.53;81.05469;931.3527;;;;
2022/05/23 00:47:45;;;;;;;7.1;3.8;;;;;;;16.52;81.30762;931.3016;;;;
2022/05/23 00:50:08;;;;;;;5.8;3.4;;;;;;;16.65;80.85547;931.3333;;;;
2022/05/23 00:52:34;;;;;;;7;3.6;;;;;;;16.75;80.26074;931.3342;;;;
2022/05/23 00:55:01;;;;;;;6.1;3.3;;;;;;;16.73;80.22266;931.3267;;;;
2022/05/23 00:57:27;;;;;;;5.9;3.2;;;;;;;16.66;80.41895;931.334;;;;
2022/05/23 00:59:54;;;;;;;5.6;3.5;;;;;;;16.67;80.20117;931.3089;;;;
2022/05/23 01:02:19;;;;;;;3.9;3.2;;;;;;;16.69;79.74121;931.31;;;;
2022/05/23 01:04:46;;;;;;;5.1;3.4;;;;;;;16.66;80.42871;931.3057;;;;
2022/05/23 01:07:12;;;;;;;4.3;3.4;;;;;;;16.71;80.04492;931.2853;;;;
2022/05/23 01:09:38;;;;;;;4.2;3.1;;;;;;;16.66;79.88672;931.3088;;;;
2022/05/23 01:12:03;;;;;;;3.2;2.8;;;;;;;16.68;80.06348;931.3054;;;;
2022/05/23 01:14:29;;;;;;;5.9;3.4;;;;;;;16.7;80.125;931.2751;;;;
2022/05/23 01:16:54;;;;;;;4.9;3.1;;;;;;;16.65;80.41602;931.2456;;;;
2022/05/23 01:19:21;;;;;;;5.4;3.8;;;;;;;16.75;80.22559;931.233;;;;
2022/05/23 01:21:46;;;;;;;7.4;3.4;;;;;;;16.76;80.18262;931.2254;;;;
2022/05/23 01:24:12;;;;;;;5.3;3.3;;;;;;;16.73;80.05078;931.2244;;;;
2022/05/23 01:26:37;;;;;;;4.9;3.4;;;;;;;16.61;80.48828;931.162;;;;
2022/05/23 01:29:03;;;;;;;4.8;3.3;;;;;;;16.59;80.44043;931.1534;;;;
2022/05/23 01:31:29;;;;;;;7.8;3.3;;;;;;;16.53;81.25098;931.1373;;;;
2022/05/23 01:33:54;;;;;;;5.1;3.4;;;;;;;16.53;81.36719;931.1855;;;;
2022/05/23 01:36:24;;;;;;;4.9;3.4;;;;;;;16.57;81.1416;931.0897;;;;
2022/05/23 01:38:49;;;;;;;5.1;3.4;;;;;;;16.62;81.07129;930.9817;;;;
2022/05/23 01:41:15;;;;;;;8.4;3.9;;;;;;;16.57;81.39648;931.0881;;;;
2022/05/23 01:43:40;;;;;;;7.2;4.1;;;;;;;16.53;81.70215;931.0594;;;;
2022/05/23 01:46:07;;;;;;;6.7;3.6;;;;;;;16.58;81.22656;931.0695;;;;
2022/05/23 01:48:32;;;;;;;7.4;3.6;;;;;;;16.51;81.6416;931.0831;;;;
2022/05/23 01:50:57;;;;;;;5.5;3.8;;;;;;;16.39;82.54492;930.975;;;;
2022/05/23 01:53:22;;;;;;;7.7;3.7;;;;;;;16.29;83.21875;930.9637;;;;
2022/05/23 01:55:51;;;;;;;6.8;3.7;;;;;;;16.35;82.74512;931.0066;;;;
2022/05/23 02:01:12;;;;;;;5.4;3.5;;;;;;;16.42;82.19141;930.9221;;;;
2022/05/23 02:03:08;;;;;;;5;3.6;;;;;;;16.45;81.84961;930.9874;;;;
2022/05/23 02:05:33;;;;;;;6.5;3.9;;;;;;;16.27;82.61426;930.9402;;;;
2022/05/23 02:08:01;;;;;;;5.2;3.3;;;;;;;16.2;83.14355;930.9231;;;;
2022/05/23 02:10:30;;;;;;;7;3.7;;;;;;;16.26;82.70508;930.9252;;;;
2022/05/23 02:13:00;;;;;;;6.2;3.8;;;;;;;16.36;82.37598;930.9429;;;;
2022/05/23 02:15:32;;;;;;;6.3;3.8;;;;;;;16.27;82.82422;931.0172;;;;
2022/05/23 02:18:02;;;;;;;7.4;3.6;;;;;;;16.09;83.97949;930.9523;;;;
2022/05/23 02:20:31;;;;;;;5.4;3.5;;;;;;;16.14;84.02441;930.8859;;;;
2022/05/23 02:22:56;;;;;;;4.6;3.5;;;;;;;16.05;84.55176;930.9345;;;;
2022/05/23 02:25:23;;;;;;;8;3.9;;;;;;;16.06;84.83008;930.9113;;;;
2022/05/23 02:27:48;;;;;;;7.4;4.1;;;;;;;16.2;83.97656;930.9216;;;;
2022/05/23 02:30:17;;;;;;;7.5;4.7;;;;;;;16.28;83.20605;930.8998;;;;
2022/05/23 02:32:45;;;;;;;6.8;3.9;;;;;;;16.32;82.69336;930.8497;;;;
2022/05/23 02:35:08;;;;;;;6.3;4.1;;;;;;;16.36;82.5498;930.8134;;;;
2022/05/23 02:37:35;;;;;;;5.9;3.6;;;;;;;16.4;82.43066;930.7842;;;;
2022/05/23 02:40:00;;;;;;;7.7;4.3;;;;;;;16.33;82.98438;930.7564;;;;
2022/05/23 02:42:29;;;;;;;7.2;3.6;;;;;;;16.22;83.85254;930.7148;;;;
2022/05/23 02:44:57;;;;;;;6.9;3.6;;;;;;;16.12;84.41211;930.6631;;;;
2022/05/23 02:47:22;;;;;;;6.9;3.8;;;;;;;16.09;84.10645;930.6157;;;;
2022/05/23 02:49:50;;;;;;;5.6;3.7;;;;;;;16.1;84.14258;930.6845;;;;
2022/05/23 02:52:15;;;;;;;6.4;4;;;;;;;16.18;83.89453;930.7308;;;;
2022/05/23 02:54:43;;;;;;;5.2;4.1;;;;;;;16.35;83.16016;930.678;;;;
2022/05/23 02:57:09;;;;;;;7.3;4.1;;;;;;;16.26;83.12109;930.6456;;;;
2022/05/23 02:59:37;;;;;;;6;3.8;;;;;;;16.21;83.47168;930.6248;;;;
2022/05/23 03:04:26;;;;;;;10.3;4;;;;;;;16.22;83.35547;930.5815;;;;
2022/05/23 03:06:57;;;;;;;7;3.9;;;;;;;16.26;82.64844;930.4945;;;;
2022/05/23 03:09:21;;;;;;;6.8;3.8;;;;;;;16.33;82.66016;930.4695;;;;
2022/05/23 03:11:50;;;;;;;6.4;3.6;;;;;;;16.38;82.50684;930.3864;;;;
2022/05/23 03:14:19;;;;;;;8.2;4;;;;;;;16.35;82.41113;930.3909;;;;
2022/05/23 03:16:44;;;;;;;5.6;3.6;;;;;;;16.35;82.31836;930.3621;;;;
2022/05/23 03:19:10;;;;;;;8.2;3.6;;;;;;;16.27;82.64844;930.3691;;;;
2022/05/23 03:28:51;;;;;;;8;3.6;;;;;;;16.46;82.17676;930.3362;;;;
2022/05/23 03:31:19;;;;;;;7.4;4.1;;;;;;;16.51;81.69922;930.3094;;;;
2022/05/23 03:33:43;;;;;;;6.9;4.1;;;;;;;16.45;81.65234;930.2159;;;;
2022/05/23 03:36:11;;;;;;;7;3.7;;;;;;;16.35;82.1875;930.2393;;;;
2022/05/23 03:38:37;;;;;;;8;4;;;;;;;16.25;82.84375;930.1967;;;;
2022/05/23 03:41:06;;;;;;;6.2;4;;;;;;;16.21;82.82324;930.1781;;;;
2022/05/23 03:43:36;;;;;;;7.9;3.9;;;;;;;16.23;83.20898;930.207;;;;
2022/05/23 03:46:11;;;;;;;7.4;3.7;;;;;;;16.19;83.29297;930.1844;;;;
2022/05/23 03:48:36;;;;;;;9.1;3.8;;;;;;;16.21;83.2168;930.1547;;;;
2022/05/23 03:51:04;;;;;;;9.8;4.1;;;;;;;16.3;83.03516;930.1417;;;;
2022/05/23 03:53:34;;;;;;;7.6;3.7;;;;;;;16.4;82.16309;930.1744;;;;
2022/05/23 03:55:59;;;;;;;6.1;3.7;;;;;;;16.37;82.21582;930.1262;;;;
2022/05/23 03:58:26;;;;;;;8.9;3.9;;;;;;;16.2;82.77539;930.1487;;;;
2022/05/23 04:02:39;;;;;;;8.5;4.3;;;;;;;16.33;82.68359;930.1553;;;;
2022/05/23 04:05:04;;;;;;;7;4.1;;;;;;;16.37;82.19336;930.1472;;;;
2022/05/23 04:07:30;;;;;;;8.6;3.9;;;;;;;16.34;82.5;930.1287;;;;
2022/05/23 04:09:54;;;;;;;11;4.3;;;;;;;16.35;82.38672;930.1347;;;;
2022/05/23 04:12:20;;;;;;;7.6;4.3;;;;;;;16.37;82.37793;930.0948;;;;
2022/05/23 04:14:47;;;;;;;8.1;3.8;;;;;;;16.27;82.82422;930.0339;;;;
2022/05/23 04:17:12;;;;;;;7.9;4.2;;;;;;;16.24;83.40723;930.0396;;;;
2022/05/23 04:19:38;;;;;;;7.3;3.9;;;;;;;16.34;82.96289;929.9455;;;;
2022/05/23 04:22:03;;;;;;;6.4;3.7;;;;;;;16.4;82.41992;929.9348;;;;
2022/05/23 04:24:30;;;;;;;8.8;4.3;;;;;;;16.42;82.30762;929.9628;;;;
2022/05/23 04:26:55;;;;;;;5.8;3.5;;;;;;;16.46;82.22168;929.9233;;;;
2022/05/23 04:29:22;;;;;;;9.3;4.3;;;;;;;16.62;80.93164;929.8692;;;;
2022/05/23 04:31:47;;;;;;;10.6;3.8;;;;;;;16.74;80.31836;929.9306;;;;
2022/05/23 04:36:38;;;;;;;10.3;3.7;;;;;;;16.82;79.64844;929.9327;;;;
2022/05/23 04:39:04;;;;;;;10.3;3.9;;;;;;;16.73;80.48828;929.9422;;;;
2022/05/23 04:41:30;;;;;;;7.7;3.7;;;;;;;16.64;80.94727;929.8392;;;;
2022/05/23 04:43:55;;;;;;;7.5;4.1;;;;;;;16.98;80.03711;929.8576;;;;
2022/05/23 04:46:25;;;;;;;8.1;3.9;;;;;;;16.87;79.91309;929.8678;;;;
2022/05/23 04:51:15;;;;;;;9.3;4.1;;;;;;;17.29;78.88672;929.8345;;;;
2022/05/23 04:53:45;;;;;;;9.7;4.5;;;;;;;17.37;77.9043;929.8041;;;;
2022/05/23 04:56:10;;;;;;;7.7;4.4;;;;;;;17.41;77.92383;929.7304;;;;
2022/05/23 04:58:37;;;;;;;8.5;3.8;;;;;;;17.4;77.81738;929.7015;;;;
2022/05/23 05:01:02;;;;;;;7;3.8;;;;;;;17.53;77.97949;929.6972;;;;
2022/05/23 05:03:30;;;;;;;11.6;4.3;;;;;;;17.67;77.74805;929.6754;;;;
2022/05/23 05:05:55;;;;;;;9.1;4.1;;;;;;;17.72;77.85059;929.6088;;;;
2022/05/23 05:08:21;;;;;;;6.8;3.9;;;;;;;17.81;77.58594;929.6496;;;;
2022/05/23 05:10:46;;;;;;;7.5;3.6;;;;;;;17.86;77.28223;929.5073;;;;
2022/05/23 05:13:12;;;;;;;6.6;3.8;;;;;;;17.92;76.6543;929.5584;;;;
2022/05/23 05:15:37;;;;;;;6.5;3.6;;;;;;;18.02;76.2998;929.5955;;;;
2022/05/23 05:18:07;;;;;;;7;3.5;;;;;;;18.04;76.49121;929.5353;;;;
2022/05/23 05:20:32;;;;;;;8.7;3.6;;;;;;;18.18;75.93359;929.5499;;;;
2022/05/23 05:22:59;;;;;;;7.7;4.1;;;;;;;18.23;75.51074;929.5898;;;;
2022/05/23 05:25:24;;;;;;;7.5;3.8;;;;;;;18.3;75.03516;929.6077;;;;
2022/05/23 05:27:52;;;;;;;11.6;4.4;;;;;;;18.53;74.01758;929.5322;;;;
2022/05/23 05:30:19;;;;;;;7.7;3.6;;;;;;;18.64;73.51074;929.5967;;;;
2022/05/23 05:32:46;;;;;;;9.7;4;;;;;;;18.82;72.2041;929.5686;;;;
2022/05/23 05:35:11;;;;;;;7.3;3.5;;;;;;;18.9;71.49609;929.5908;;;;
2022/05/23 05:37:37;;;;;;;10.4;4.2;;;;;;;18.86;72.11719;929.5585;;;;
2022/05/23 05:40:02;;;;;;;5.9;3.7;;;;;;;18.74;72.49316;929.5664;;;;
2022/05/23 05:42:27;;;;;;;6.9;3.6;;;;;;;18.95;71.8291;929.5075;;;;
2022/05/23 05:44:58;;;;;;;11.4;4;;;;;;;18.85;71.91699;929.532;;;;
2022/05/23 05:47:23;;;;;;;8.7;4;;;;;;;18.99;72.16113;929.6408;;;;
2022/05/23 05:49:48;;;;;;;9.4;3.5;;;;;;;19.02;72.17676;929.5735;;;;
2022/05/23 05:52:13;;;;;;;9.7;4.2;;;;;;;19.03;72.03906;929.5147;;;;
2022/05/23 05:54:45;;;;;;;8.6;3.4;;;;;;;19.19;71.01855;929.5812;;;;
2022/05/23 05:57:12;;;;;;;7.9;3.9;;;;;;;19.37;70.6748;929.6124;;;;
2022/05/23 05:59:36;;;;;;;6.9;3.8;;;;;;;19.25;71.22656;929.5483;;;;
2022/05/23 06:02:02;;;;;;;11.3;4.5;;;;;;;19.32;71.86621;929.5742;;;;
2022/05/23 06:04:29;;;;;;;10.2;4.3;;;;;;;19.24;71.39844;929.5983;;;;
2022/05/23 06:11:44;;;;;;;9.1;3.9;;;;;;;19.42;72.53418;929.7351;;;;
2022/05/23 06:14:09;;;;;;;8.7;3.8;;;;;;;19.17;71.16504;929.5569;;;;
2022/05/23 06:16:35;;;;;;;9.7;3.6;;;;;;;19.15;72.00293;929.714;;;;
2022/05/23 06:19:00;;;;;;;7.5;3.9;;;;;;;19.37;72.48047;929.6431;;;;
2022/05/23 06:21:27;;;;;;;8.1;3.9;;;;;;;19.49;73.29102;929.6649;;;;
2022/05/23 06:23:52;;;;;;;9.4;4.1;;;;;;;19.6;72.43652;929.6711;;;;
2022/05/23 06:26:18;;;;;;;7.5;4.1;;;;;;;19.71;71.90625;929.7269;;;;
2022/05/23 06:28:43;;;;;;;11.8;5;;;;;;;19.63;73.34961;929.684;;;;
2022/05/23 06:31:10;;;;;;;10.8;4.4;;;;;;;19.43;72.74609;929.7211;;;;
2022/05/23 06:33:36;;;;;;;10;4.4;;;;;;;19.12;73.8252;929.7056;;;;
2022/05/23 06:36:05;;;;;;;11;3.9;;;;;;;19.18;72.17969;929.7955;;;;
2022/05/23 06:38:29;;;;;;;7;3.7;;;;;;;19.39;72.40234;929.8864;;;;
2022/05/23 06:40:57;;;;;;;7.9;3.6;;;;;;;19.43;73.00195;930.0313;;;;
2022/05/23 06:43:23;;;;;;;11.5;4.4;;;;;;;19.48;72.70801;929.9849;;;;
2022/05/23 06:45:52;;;;;;;10.1;3.6;;;;;;;19.42;71.53223;929.9854;;;;
2022/05/23 06:48:22;;;;;;;7.9;3.5;;;;;;;19.49;72.11523;929.9386;;;;
2022/05/23 06:50:49;;;;;;;10.1;3.6;;;;;;;19.75;71.94824;930.1138;;;;
2022/05/23 06:53:11;;;;;;;7.9;3.8;;;;;;;20.07;70.50488;930.1409;;;;
2022/05/23 06:55:38;;;;;;;9;3.7;;;;;;;20.17;69.78613;930.2491;;;;
2022/05/23 06:58:03;;;;;;;7.3;3.6;;;;;;;20.33;70.11719;930.1772;;;;
2022/05/23 07:00:32;;;;;;;8;4.4;;;;;;;20.45;69.45703;930.2241;;;;
2022/05/23 07:02:57;;;;;;;8.4;3.6;;;;;;;20.63;68.66699;930.1956;;;;
2022/05/23 07:12:47;;;;;;;12.8;4.2;;;;;;;20.67;68.21875;930.3331;;;;
2022/05/23 07:15:13;;;;;;;7.5;4;;;;;;;20.67;68.99023;930.2926;;;;
2022/05/23 07:17:39;;;;;;;8.1;3.7;;;;;;;20.77;70.4082;930.2495;;;;
2022/05/23 07:20:05;;;;;;;10.2;3.7;;;;;;;20.98;71.11914;930.152;;;;
2022/05/23 07:22:32;;;;;;;8.3;3.7;;;;;;;21.15;70.63184;930.139;;;;
2022/05/23 07:24:57;;;;;;;7.1;3.4;;;;;;;21.09;68.98633;930.1487;;;;
2022/05/23 07:27:25;;;;;;;7.7;3.7;;;;;;;21.14;69.78809;930.1888;;;;
2022/05/23 07:29:50;;;;;;;7.1;3.6;;;;;;;21.06;70.65137;930.16;;;;
2022/05/23 07:32:17;;;;;;;8.2;3.5;;;;;;;21.52;66.89746;930.0235;;;;
2022/05/23 07:34:43;;;;;;;8.1;3.4;;;;;;;22.13;65.85352;929.9269;;;;
2022/05/23 07:37:10;;;;;;;7.5;3.3;;;;;;;23.07;62.88965;929.8713;;;;
2022/05/23 07:39:34;;;;;;;8;3.1;;;;;;;23.35;60.21387;929.847;;;;
2022/05/23 07:42:02;;;;;;;8.1;3.7;;;;;;;23.7;58.75488;929.8494;;;;
2022/05/23 07:44:28;;;;;;;10.1;3.4;;;;;;;23.91;58.64258;929.8295;;;;
2022/05/23 07:46:56;;;;;;;6.9;3;;;;;;;23.59;58.11719;929.8427;;;;
2022/05/23 07:49:20;;;;;;;7.5;3.5;;;;;;;23.49;58.98633;929.7772;;;;
2022/05/23 07:51:45;;;;;;;8.1;3.4;;;;;;;23.69;58.39941;929.7541;;;;
2022/05/23 08:01:27;;;;;;;10.2;3.2;;;;;;;24.03;55.32617;929.5158;;;;
2022/05/23 08:03:56;;;;;;;8.2;3.3;;;;;;;23.87;56.11816;929.5342;;;;
2022/05/23 08:06:25;;;;;;;8.7;3.2;;;;;;;23.85;55.96289;929.4803;;;;
2022/05/23 08:08:46;;;;;;;4.2;2.7;;;;;;;23.69;56.08301;929.4182;;;;
2022/05/23 08:11:14;;;;;;;6.9;2.9;;;;;;;24.19;53.67285;929.3702;;;;
2022/05/23 08:13:39;;;;;;;8.3;3.8;;;;;;;25.6;50.68848;929.3651;;;;
2022/05/23 08:16:04;;;;;;;10.2;3.3;;;;;;;24.62;51.55566;929.3137;;;;
2022/05/23 08:18:31;;;;;;;7.5;2.8;;;;;;;24.46;52.99902;929.3087;;;;
2022/05/23 08:20:56;;;;;;;11.5;3.3;;;;;;;25.46;50.75488;929.3438;;;;
2022/05/23 08:23:24;;;;;;;7.1;3.6;;;;;;;24.75;51.35742;929.283;;;;
2022/05/23 08:25:49;;;;;;;6.5;2.9;;;;;;;24.97;51.47754;929.2637;;;;
2022/05/23 08:28:15;;;;;;;6.7;3.3;;;;;;;25.36;51.4043;929.1616;;;;
2022/05/23 08:30:40;;;;;;;7.7;3.1;;;;;;;25.15;50.63672;929.1223;;;;
2022/05/23 08:33:07;;;;;;;10.7;3.4;;;;;;;25.88;53.47461;929.1264;;;;
2022/05/23 08:35:32;;;;;;;6.7;3.1;;;;;;;26.36;51.61426;929.0836;;;;
2022/05/23 08:38:00;;;;;;;7.1;3.3;;;;;;;25.53;49.6748;929.0545;;;;
2022/05/23 08:40:25;;;;;;;10.4;3.7;;;;;;;25.57;50.09473;928.9447;;;;
2022/05/23 08:42:51;;;;;;;5.8;2.9;;;;;;;26.32;49.77539;928.9639;;;;
2022/05/23 08:45:16;;;;;;;7.6;3;;;;;;;27.62;50.49023;928.8869;;;;
2022/05/23 08:47:44;;;;;;;6.9;3.6;;;;;;;29;43.58398;928.9043;;;;
2022/05/23 08:50:09;;;;;;;6;2.9;;;;;;;29.41;43.15918;928.8502;;;;
2022/05/23 08:52:37;;;;;;;6.9;3;;;;;;;28.74;45.8916;928.8191;;;;
2022/05/23 08:55:03;;;;;;;8.2;3.6;;;;;;;28.27;46.35352;928.7296;;;;
2022/05/23 08:57:29;;;;;;;10.9;3.3;;;;;;;28.78;43.39648;928.7369;;;;
2022/05/23 08:59:54;;;;;;;8.8;3.1;;;;;;;28.53;43.13379;928.676;;;;
2022/05/23 09:02:19;;;;;;;7.1;3.1;;;;;;;28.23;46.125;928.5646;;;;
2022/05/23 09:04:44;;;;;;;7.6;3.4;;;;;;;28.92;47.89746;928.5706;;;;
2022/05/23 09:07:09;;;;;;;7.6;3.3;;;;;;;29.04;46.94531;928.5231;;;;
2022/05/23 09:09:36;;;;;;;8.8;2.9;;;;;;;28.82;48.49414;928.4936;;;;
2022/05/23 09:12:00;;;;;;;8.7;3.7;;;;;;;27.78;48.52441;928.3987;;;;
2022/05/23 09:14:25;;;;;;;10;3.8;;;;;;;26.63;49.57324;928.3207;;;;
2022/05/23 09:16:54;;;;;;;14.6;5.9;;;;;;;27.13;50.70703;928.2679;;;;
2022/05/23 09:19:19;;;;;;;11.1;3.8;;;;;;;27.54;48.34375;928.2476;;;;
2022/05/23 09:24:11;;;;;;;9.7;3.8;;;;;;;28.93;48.33887;928.3092;;;;
2022/05/23 09:26:34;;;;;;;7;3.1;;;;;;;28.52;50.15039;928.2209;;;;
2022/05/23 09:28:59;;;;;;;21.5;6;;;;;;;29.41;48.21094;928.1517;;;;
2022/05/23 09:31:24;;;;;;;9.3;4.5;;;;;;;28.97;47.80762;928.1426;;;;
2022/05/23 09:33:51;;;;;;;11.5;3.8;;;;;;;27.42;51.41602;928.0844;;;;
2022/05/23 09:36:23;;;;;;;10.1;3.9;;;;;;;26.88;52.05371;928.007;;;;
2022/05/23 09:38:50;;;;;;;11.1;5;;;;;;;27.06;52.34668;928.014;;;;
2022/05/23 09:41:17;;;;;;;10.1;4.2;;;;;;;26.75;52.72559;927.95;;;;
2022/05/23 09:48:34;;;;;;;8.3;3.4;;;;;;;28.65;48.03516;927.7278;;;;
2022/05/23 09:50:58;;;;;;;9.8;3.7;;;;;;;27.59;50.6875;927.6592;;;;
2022/05/23 09:53:26;;;;;;;10.4;3.6;;;;;;;27.56;50.15039;927.6219;;;;
2022/05/23 09:55:51;;;;;;;9.3;3.2;;;;;;;28.56;49.75098;927.574;;;;
2022/05/23 09:58:18;;;;;;;7.9;3.1;;;;;;;28.9;47.44336;927.5438;;;;
2022/05/23 10:00:43;;;;;;;6.6;3.5;;;;;;;28.52;50.98145;927.5219;;;;
2022/05/23 10:03:15;;;;;;;7.9;3;;;;;;;28.9;46.8125;927.3713;;;;
2022/05/23 10:05:50;;;;;;;7.1;3.2;;;;;;;28.84;47.44824;927.3909;;;;
2022/05/23 10:08:11;;;;;;;6.1;3.1;;;;;;;29.12;48.39453;927.2709;;;;
2022/05/23 10:10:36;;;;;;;7.6;3.4;;;;;;;29.17;44.73242;927.2631;;;;
2022/05/23 10:13:01;;;;;;;6.5;3.4;;;;;;;29.2;47.30762;927.2169;;;;
2022/05/23 10:15:29;;;;;;;7.3;3.2;;;;;;;28.84;47.23438;927.1942;;;;
2022/05/23 10:17:55;;;;;;;11;3.4;;;;;;;28.76;45.96484;927.0519;;;;
2022/05/23 10:20:23;;;;;;;7.5;3.4;;;;;;;28.75;47.27344;926.9988;;;;
2022/05/23 10:22:53;;;;;;;5.9;3.2;;;;;;;29.29;46.22168;926.9309;;;;
2022/05/23 10:25:20;;;;;;;6;3.2;;;;;;;29.49;44.74023;926.8897;;;;
2022/05/23 10:27:45;;;;;;;6;3.2;;;;;;;29.3;49.84375;926.7819;;;;
2022/05/23 10:30:10;;;;;;;6.9;3.4;;;;;;;28.95;48.34082;926.8136;;;;
2022/05/23 10:32:41;;;;;;;7.2;3.4;;;;;;;29.22;44.11719;926.7189;;;;
2022/05/23 10:35:06;;;;;;;7.9;3.3;;;;;;;30.11;44.87305;926.7324;;;;
2022/05/23 10:37:40;;;;;;;8;3.3;;;;;;;30.24;44.64844;926.7219;;;;
2022/05/23 10:42:38;;;;;;;8;3.4;;;;;;;30.83;44.06055;926.5994;;;;
2022/05/23 10:45:04;;;;;;;7.4;3.3;;;;;;;29.53;47.47363;926.5397;;;;
2022/05/23 10:47:30;;;;;;;7;3.8;;;;;;;29.49;46.81445;926.5726;;;;
2022/05/23 10:49:55;;;;;;;10.3;3.5;;;;;;;29.14;47.83691;926.533;;;;
2022/05/23 10:52:20;;;;;;;9.7;3.5;;;;;;;28.73;49.55469;926.5491;;;;
2022/05/23 10:54:46;;;;;;;12.3;4.2;;;;;;;29.16;49.43457;926.4828;;;;
2022/05/23 10:57:11;;;;;;;10.7;4;;;;;;;29.36;49.63672;926.5524;;;;
2022/05/23 10:59:36;;;;;;;11.5;4.2;;;;;;;29.41;49.14063;926.5003;;;;
2022/05/23 11:02:02;;;;;;;7.7;3.4;;;;;;;30.2;45.2998;926.4644;;;;
2022/05/23 11:04:32;;;;;;;10.3;3.4;;;;;;;30.72;43.11816;926.4208;;;;
2022/05/23 11:07:00;;;;;;;7;2.9;;;;;;;31.1;41.53809;926.4295;;;;
2022/05/23 11:09:24;;;;;;;7.5;3.3;;;;;;;31.18;41.08008;926.426;;;;
2022/05/23 11:11:51;;;;;;;8.7;3.3;;;;;;;31.51;39.66113;926.4489;;;;
2022/05/23 11:14:18;;;;;;;10.5;3.1;;;;;;;31.79;41.20703;926.4518;;;;
2022/05/23 11:16:46;;;;;;;10.7;3.2;;;;;;;30.62;43.72949;926.3702;;;;
2022/05/23 11:19:14;;;;;;;8.6;3.4;;;;;;;29.72;45.88281;926.3672;;;;
2022/05/23 11:21:41;;;;;;;11.2;3.8;;;;;;;30.24;44.0498;926.3111;;;;
2022/05/23 11:24:06;;;;;;;9;3.2;;;;;;;30.53;42.97949;926.2524;;;;
2022/05/23 11:26:31;;;;;;;7.8;3.5;;;;;;;30.75;41.4834;926.2383;;;;
2022/05/23 11:33:49;;;;;;;7.3;3;;;;;;;30.47;44.01367;926.0627;;;;
2022/05/23 11:36:15;;;;;;;6.7;2.9;;;;;;;30.53;43.63672;926.024;;;;
2022/05/23 11:38:38;;;;;;;8.4;3.5;;;;;;;30.44;43.11523;925.9559;;;;
2022/05/23 11:41:06;;;;;;;7.5;3.2;;;;;;;30.26;41.30664;925.907;;;;
2022/05/23 11:43:34;;;;;;;11.7;3.5;;;;;;;30.01;43.07324;925.8159;;;;
2022/05/23 11:45:59;;;;;;;5.8;3.2;;;;;;;30.16;43.20703;925.7206;;;;
2022/05/23 11:48:24;;;;;;;7.2;3.3;;;;;;;30.09;44.25098;925.6091;;;;
2022/05/23 11:50:51;;;;;;;7.4;3.9;;;;;;;29.59;47.79004;925.5659;;;;
2022/05/23 11:53:16;;;;;;;9.3;3.3;;;;;;;29.15;50.68555;925.5659;;;;
2022/05/23 11:55:45;;;;;;;7.7;3.3;;;;;;;29.02;48.58691;925.4913;;;;
2022/05/23 11:58:11;;;;;;;5.9;3.4;;;;;;;28.83;47.80469;925.4439;;;;
2022/05/23 12:00:35;;;;;;;7.6;3.8;;;;;;;28.28;50.15918;925.4422;;;;
2022/05/23 12:03:04;;;;;;;8.3;3.5;;;;;;;27.6;51.79297;925.4106;;;;
2022/05/23 12:05:31;;;;;;;9.9;3.6;;;;;;;27.42;51.6416;925.3635;;;;
2022/05/23 12:07:56;;;;;;;7;4.1;;;;;;;27.12;53.04004;925.3039;;;;
2022/05/23 12:10:21;;;;;;;8.5;4;;;;;;;27.04;54.27637;925.3188;;;;
2022/05/23 12:12:47;;;;;;;11.8;4;;;;;;;26.87;54.61035;925.4799;;;;
2022/05/23 12:15:15;;;;;;;10;3.8;;;;;;;26.5;56.26074;925.5181;;;;
2022/05/23 12:17:41;;;;;;;8.7;3.6;;;;;;;26.23;57.8584;925.6511;;;;
2022/05/23 12:20:07;;;;;;;8.8;3.7;;;;;;;26.19;58.63281;925.8075;;;;
2022/05/23 12:22:35;;;;;;;7.1;3.7;;;;;;;25.93;60.12598;925.9562;;;;
2022/05/23 12:24:59;;;;;;;10.1;3.9;;;;;;;25.78;60.7666;926.1072;;;;
2022/05/23 12:27:25;;;;;;;8.6;3.9;;;;;;;25.58;63.82422;926.3409;;;;
2022/05/23 12:29:50;;;;;;;12;4.8;;;;;;;25.1;65.63184;926.4344;;;;
2022/05/23 12:32:16;;;;;;;11.5;5.1;;;;;;;24.63;71.02246;926.4091;;;;
2022/05/23 12:34:42;;;;;;;14.5;5;;;;;;;24.07;74.88965;926.0705;;;;
2022/05/23 12:37:07;;;;;;;12.4;4.7;;;;;;;23.47;74.75293;926.1035;;;;
2022/05/23 12:39:32;;;;;;;11.5;4.8;;;;;;;23.33;78.12598;926.1692;;;;
2022/05/23 12:42:12;;;;;;;10.1;4.5;;;;;;;23.35;73.69727;926.2883;;;;
2022/05/23 12:44:26;;;;;;;12;5.6;;;;;;;23.34;74.9541;926.3792;;;;
2022/05/23 12:46:51;;;;;;;11.1;4.9;;;;;;;23.16;79.24805;926.3431;;;;
2022/05/23 12:49:16;;;;;;;11.7;4.7;;;;;;;23.21;77.48242;926.2817;;;;
2022/05/23 12:51:42;;;;;;;11.5;4.2;;;;;;;23.5;77.33301;926.2112;;;;
2022/05/23 12:54:09;;;;;;;11.2;4.6;;;;;;;23.58;78.22949;926.0964;;;;
2022/05/23 12:56:35;;;;;;;11.3;4.9;;;;;;;23.94;77.46875;925.9824;;;;
2022/05/23 12:59:02;;;;;;;13;4.8;;;;;;;24.31;76.86133;926.0564;;;;
2022/05/23 13:01:30;;;;;;;12.8;5;;;;;;;24.7;73.49707;926.1853;;;;
2022/05/23 13:03:55;;;;;;;17.5;4.5;;;;;;;25.14;66.61816;926.139;;;;
2022/05/23 13:06:20;;;;;;;10.5;4.6;;;;;;;25.51;68.24414;925.9707;;;;
2022/05/23 13:08:45;;;;;;;12.5;5.4;;;;;;;25.42;68.86719;925.9891;;;;
2022/05/23 13:11:10;;;;;;;9.3;4.3;;;;;;;25.54;66.9707;926.0522;;;;
2022/05/23 13:13:35;;;;;;;17;4.9;;;;;;;25.51;67.75977;926.1331;;;;
2022/05/23 13:16:00;;;;;;;11.4;5.3;;;;;;;25.79;67.16406;926.217;;;;
2022/05/23 13:23:24;;;;;;;12.4;5.7;;;;;;;26.01;63.60254;926.1735;;;;
2022/05/23 13:25:49;;;;;;;16.8;3.8;;;;;;;25.54;62.59961;926.0945;;;;
2022/05/23 13:28:19;;;;;;;9.5;3.7;;;;;;;25.28;63.24902;926.0869;;;;
2022/05/23 13:30:44;;;;;;;12.8;3.6;;;;;;;25.34;61.22754;926.0936;;;;
2022/05/23 13:33:16;;;;;;;10.5;3.4;;;;;;;24.99;63.06738;926.3108;;;;
2022/05/23 13:35:41;;;;;;;11.2;3.8;;;;;;;24.94;65.9043;926.4539;;;;
2022/05/23 13:38:11;;;;;;;12.7;4.3;;;;;;;24.85;65.98535;926.5506;;;;
2022/05/23 13:40:36;;;;;;;10.2;3.7;;;;;;;24;62.53906;926.4844;;;;
2022/05/23 13:43:01;;;;;;;9.5;3.8;;;;;;;23.42;65.44336;926.3575;;;;
2022/05/23 13:45:26;;;;;;;10.9;3.9;;;;;;;22.91;64.92285;926.2751;;;;
2022/05/23 13:47:51;;;;;;;11.3;4.2;;;;;;;22.53;67.02539;926.2814;;;;
2022/05/23 13:50:18;;;;;;;13.8;4.2;;;;;;;22.64;67.99414;926.2957;;;;
2022/05/23 13:52:44;;;;;;;9.9;3.7;;;;;;;22.49;70.95117;926.38;;;;
2022/05/23 13:55:09;;;;;;;15;5.2;;;;;;;22.22;74.06348;926.4913;;;;
2022/05/23 13:57:33;;;;;;;19.9;5.2;;;;;;;22.21;76.26465;926.56;;;;
2022/05/23 13:59:58;;;;;;;14.7;5.1;;;;;;;22.36;78.0625;926.6049;;;;
2022/05/23 14:02:23;;;;;;;14.1;5;;;;;;;22.28;77.64941;926.4818;;;;
2022/05/23 14:04:48;;;;;;;10.8;4.5;;;;;;;21.98;76.27148;926.247;;;;
2022/05/23 14:07:13;;;;;;;12;4.3;;;;;;;21.9;76.03516;926.3081;;;;
2022/05/23 14:09:41;;;;;;;11.3;4.2;;;;;;;21.91;79.21387;926.6257;;;;
2022/05/23 14:12:06;;;;;;;13.4;5.4;;;;;;;21.69;83.12012;926.8859;;;;
2022/05/23 14:14:31;;;;;;;12.5;4.9;;;;;;;21.49;83.41113;926.9947;;;;
2022/05/23 14:16:58;;;;;;;11.1;5;;;;;;;21.38;84.30469;927.1456;;;;
2022/05/23 14:19:25;;;;;;;12.7;4.2;;;;;;;21.19;84.36035;927.3851;;;;
2022/05/23 14:21:50;;;;;;;15.8;5.3;;;;;;;21.06;86.04395;927.6131;;;;
2022/05/23 14:24:24;;;;;;;11.4;4.7;;;;;;;21.02;86.47949;927.5908;;;;
2022/05/23 14:26:51;;;;;;;14.4;4.2;;;;;;;21.15;83.96777;927.4802;;;;
2022/05/23 14:29:16;;;;;;;14;5.2;;;;;;;21.2;84.01172;927.2642;;;;
2022/05/23 14:31:46;;;;;;;14.5;5.6;;;;;;;21.32;84.02246;927.1456;;;;
2022/05/23 14:34:10;;;;;;;11.3;4.3;;;;;;;21.39;84.03613;927.218;;;;
2022/05/23 14:36:39;;;;;;;14.1;5;;;;;;;20.65;87.59961;927.4947;;;;
2022/05/23 14:39:07;;;;;;;17.7;5.3;;;;;;;20.72;87.09961;927.6094;;;;
2022/05/23 14:41:32;;;;;;;14;4.9;;;;;;;20.67;86.08398;927.6337;;;;
2022/05/23 14:43:58;;;;;;;14.2;5.2;;;;;;;20.47;89.14258;927.6414;;;;
2022/05/23 14:46:23;;;;;;;14;5.3;;;;;;;20.55;88.57227;927.7748;;;;
2022/05/23 14:48:49;;;;;;;12.2;4.5;;;;;;;20.4;87.46777;927.7374;;;;
2022/05/23 14:51:15;;;;;;;14.4;5.4;;;;;;;20.34;86.16113;927.4376;;;;
2022/05/23 14:56:07;;;;;;;14.3;5.5;;;;;;;20.47;84.90039;927.3839;;;;
2022/05/23 15:01:05;;;;;;;13.5;5.2;;;;;;;20.13;84.5918;927.7086;;;;
2022/05/23 15:03:30;;;;;;;10.3;4.3;;;;;;;19.96;86.04004;927.6987;;;;
2022/05/23 15:06:01;;;;;;;16.7;5.1;;;;;;;20.27;85.28418;927.642;;;;
2022/05/23 15:08:25;;;;;;;15.5;4.6;;;;;;;20.43;85.17578;927.5834;;;;
2022/05/23 15:10:50;;;;;;;11.1;4.6;;;;;;;20.54;83.875;927.5455;;;;
2022/05/23 15:13:16;;;;;;;12.3;4.9;;;;;;;20.56;87.87402;927.5309;;;;
2022/05/23 15:15:46;;;;;;;12.4;5.4;;;;;;;20.71;86.25586;927.3961;;;;
2022/05/23 15:18:13;;;;;;;11.2;4.2;;;;;;;21.11;84.74316;927.2505;;;;
2022/05/23 15:20:38;;;;;;;9.4;4.4;;;;;;;21.33;82.38574;927.1969;;;;
2022/05/23 15:23:04;;;;;;;12.5;4.7;;;;;;;21.06;82.28809;927.4152;;;;